createdAt,value
2018-07-06T00:00:01.544Z,99.90
2018-07-06T00:10:02.828Z,99.90
2018-07-06T00:20:04.098Z,99.90
2018-07-06T00:30:05.367Z,99.50
2018-07-06T00:40:07.402Z,96.30
2018-07-06T00:50:08.735Z,96.30
2018-07-06T01:10:16.838Z,97.20
2018-07-06T01:20:18.035Z,96.20
2018-07-06T01:30:19.283Z,93.80
2018-07-06T01:40:21.303Z,92.70
2018-07-06T01:50:23.322Z,90.60
2018-07-06T02:00:24.591Z,90.60
2018-07-06T02:10:25.855Z,87.70
2018-07-06T02:20:27.110Z,85.70
2018-07-06T02:30:28.372Z,80.70
2018-07-06T02:40:29.637Z,86.20
2018-07-06T02:50:30.909Z,82.20
2018-07-06T03:00:32.171Z,81.80
2018-07-06T03:10:33.436Z,80.30
2018-07-06T04:21:21.226Z,80.00
2018-07-06T04:31:22.486Z,80.00
2018-07-06T04:41:23.756Z,83.90
2018-07-06T04:51:25.011Z,85.80
2018-07-06T05:01:26.257Z,89.80
2018-07-06T05:11:27.497Z,89.50
2018-07-06T05:21:28.919Z,90.00
2018-07-06T05:31:30.941Z,92.80
2018-07-06T05:41:32.953Z,93.70
2018-07-06T05:51:34.961Z,92.10
2018-07-06T06:01:36.294Z,92.10
2018-07-06T06:11:37.566Z,93.60
2018-07-06T06:21:38.823Z,93.60
2018-07-06T06:31:40.084Z,95.20
2018-07-06T06:41:41.345Z,96.60
2018-07-06T06:51:42.592Z,97.10
2018-07-06T07:01:43.847Z,97.60
2018-07-06T07:11:45.083Z,96.60
2018-07-06T07:21:46.357Z,97.10
2018-07-06T07:31:47.595Z,98.80
2018-07-06T07:41:48.862Z,98.60
2018-07-06T07:51:50.137Z,98.90
2018-07-06T08:01:51.418Z,99.80
2018-07-06T08:11:52.758Z,98.50
2018-07-06T08:21:54.706Z,98.20
2018-07-06T08:31:56.724Z,98.80
2018-07-06T08:41:58.732Z,98.70
2018-07-06T08:52:00.769Z,98.30
2018-07-06T09:02:02.083Z,98.30
2018-07-06T09:12:04.120Z,98.40
2018-07-06T09:22:05.395Z,98.40
2018-07-06T09:32:06.682Z,98.90
2018-07-06T09:42:07.925Z,98.80
2018-07-06T09:52:09.206Z,98.80
2018-07-06T10:02:10.546Z,99.10
2018-07-06T10:12:11.822Z,99.20
2018-07-06T10:22:13.098Z,99.90
2018-07-06T10:32:14.390Z,99.90
2018-07-06T10:42:15.663Z,99.90
2018-07-06T10:52:16.920Z,98.20
2018-07-06T11:02:18.182Z,96.30
2018-07-06T11:12:19.445Z,96.30
2018-07-06T11:22:20.720Z,94.60
2018-07-06T11:32:22.011Z,92.60
2018-07-06T11:42:23.287Z,91.90
2018-07-06T11:52:25.318Z,94.10
2018-07-06T12:02:26.651Z,94.00
2018-07-06T12:12:27.893Z,93.80
2018-07-06T12:22:29.910Z,94.90
2018-07-06T12:32:31.960Z,93.60
2018-07-06T12:42:33.218Z,93.60
2018-07-06T12:52:35.261Z,93.80
2018-07-06T13:02:36.541Z,93.80
2018-07-06T13:12:37.833Z,92.90
2018-07-06T13:22:39.102Z,91.10
2018-07-06T13:32:40.524Z,90.10
2018-07-06T13:42:42.534Z,87.60
2018-07-06T13:52:44.559Z,85.80
2018-07-06T14:02:45.804Z,85.80
2018-07-06T14:12:47.074Z,87.80
2018-07-06T14:22:49.170Z,78.90
2018-07-06T14:32:50.434Z,78.90
2018-07-06T14:42:52.441Z,77.80
2018-07-06T14:52:54.491Z,76.10
2018-07-06T15:13:02.509Z,76.20
2018-07-06T15:23:04.526Z,77.90
2018-07-06T15:33:05.798Z,77.80
2018-07-06T15:43:07.828Z,80.80
2018-07-06T15:53:09.101Z,80.80
2018-07-06T16:03:11.139Z,83.70
2018-07-06T16:23:19.807Z,81.50
2018-07-06T16:43:27.956Z,79.80
2018-07-06T16:53:30.086Z,83.00
2018-07-06T17:03:32.118Z,81.40
2018-07-06T17:13:33.378Z,81.30
2018-07-06T17:23:34.682Z,81.70
2018-07-06T17:33:38.834Z,82.80
2018-07-06T17:43:40.102Z,82.70
2018-07-06T17:53:41.399Z,81.40
2018-07-06T18:03:42.668Z,82.10
2018-07-06T18:13:43.937Z,84.10
2018-07-06T18:23:46.557Z,81.60
2018-07-06T18:33:48.205Z,81.60
2018-07-06T18:43:50.241Z,86.20
2018-07-06T18:53:51.504Z,86.00
2018-07-06T19:44:22.475Z,89.20
2018-07-06T19:54:23.771Z,89.20
2018-07-06T20:04:25.031Z,87.40
2018-07-06T20:24:33.539Z,88.90
2018-07-06T20:34:34.823Z,85.50
2018-07-06T20:44:36.093Z,85.70
2018-07-06T20:54:37.368Z,85.70
2018-07-06T21:04:38.640Z,85.20
2018-07-06T21:14:40.673Z,86.30
2018-07-06T21:24:41.934Z,86.30
2018-07-06T21:34:43.186Z,81.50
2018-07-06T21:44:44.432Z,77.90
2018-07-06T21:54:45.683Z,79.80
2018-07-06T22:35:08.601Z,83.90
2018-07-06T22:45:09.854Z,80.40
2018-07-06T22:55:11.113Z,76.70
2018-07-06T23:05:13.150Z,82.10
2018-07-06T23:15:14.378Z,82.00
2018-07-06T23:25:15.642Z,80.30
2018-07-06T23:35:16.895Z,85.50
2018-07-06T23:45:18.159Z,88.80
2018-07-06T23:55:19.394Z,89.60
